Time;durP1;ratioP1;P1;durP2;ratioP2;P2;SDS_P1;SDS_P2;PMS_P1;PMS_P2;Temp;Humidity;BMP_temperature;BMP_pressure;BME280_temperature;BME280_humidity;BME280_pressure;Samples;Min_cycle;Max_cycle;Signal;HPM_P1;HPM_P2
2023/06/30 00:02:18;;;;;;;;;;;;;;;19.44;100.00;97354.97;18565171;32;19968;-46
2023/06/30 00:12:21;;;;;;;;;;;;;;;19.30;100.00;97338.81;18564320;32;20280;-46
2023/06/30 00:22:25;;;;;;;;;;;;;;;19.21;100.00;97324.38;18563116;31;20329;-46
2023/06/30 00:32:31;;;;;;;;;;;;;;;19.12;100.00;97318.97;18562895;32;20261;-45
2023/06/30 00:42:34;;;;;;;;;;;;;;;19.04;100.00;97319.84;18562922;32;20024;-46
2023/06/30 00:52:37;;;;;;;;;;;;;;;18.96;100.00;97311.34;18562255;32;19964;-46
2023/06/30 01:03:01;;;;;;;;;;;;;;;18.91;100.00;97299.78;18547381;32;20011;-46
2023/06/30 01:13:05;;;;;;;;;;;;;;;18.91;100.00;97306.06;18561498;32;20008;-46
2023/06/30 01:23:08;;;;;;;;;;;;;;;18.95;100.00;97309.75;18561424;32;20268;-47
2023/06/30 01:33:11;;;;;;;;;;;;;;;18.98;100.00;97307.47;18561551;32;19948;-46
2023/06/30 01:43:14;;;;;;;;;;;;;;;18.99;100.00;97309.06;18573700;32;19991;-47
2023/06/30 01:53:17;;;;;;;;;;;;;;;19.00;100.00;97318.91;18559175;32;20273;-46
2023/06/30 02:03:20;;;;;;;;;;;;;;;19.01;100.00;97315.81;18572333;32;20011;-45
2023/06/30 02:13:22;;;;;;;;;;;;;;;19.00;100.00;97300.50;18571531;31;20319;-46
2023/06/30 02:23:27;;;;;;;;;;;;;;;18.86;100.00;97295.28;18557192;32;19957;-47
2023/06/30 02:33:29;;;;;;;;;;;;;;;18.82;100.00;97338.16;18567441;32;19992;-46
2023/06/30 02:43:32;;;;;;;;;;;;;;;18.75;100.00;97329.69;18551968;32;19957;-47
2023/06/30 02:53:35;;;;;;;;;;;;;;;18.63;100.00;97316.69;18565601;32;19999;-48
2023/06/30 03:03:38;;;;;;;;;;;;;;;18.47;100.00;97302.75;18565119;32;19980;-47
2023/06/30 03:13:43;;;;;;;;;;;;;;;18.43;100.00;97307.31;18564463;32;19959;-49
2023/06/30 03:23:46;;;;;;;;;;;;;;;18.45;100.00;97359.78;18549789;32;20318;-48
2023/06/30 03:33:49;;;;;;;;;;;;;;;18.41;100.00;97372.53;18566376;32;19979;-47
2023/06/30 03:43:51;;;;;;;;;;;;;;;18.39;100.00;97378.34;18566311;32;19944;-48
2023/06/30 03:53:54;;;;;;;;;;;;;;;18.36;100.00;97380.94;18551640;32;20000;-47
2023/06/30 04:03:56;;;;;;;;;;;;;;;18.33;100.00;97398.00;18564342;31;19979;-49
2023/06/30 04:14:01;;;;;;;;;;;;;;;18.33;100.00;97428.12;18564279;32;20043;-48
2023/06/30 04:24:04;;;;;;;;;;;;;;;18.32;100.00;97421.03;18564132;32;20023;-48
2023/06/30 04:34:07;;;;;;;;;;;;;;;18.31;100.00;97425.72;18562858;32;19948;-48
2023/06/30 04:44:09;;;;;;;;;;;;;;;18.29;100.00;97428.78;18563263;32;19967;-48
2023/06/30 04:54:12;;;;;;;;;;;;;;;18.26;100.00;97428.62;18562306;32;19944;-49
2023/06/30 05:04:15;;;;;;;;;;;;;;;18.26;100.00;97417.66;18562036;32;19949;-50
2023/06/30 05:14:18;;;;;;;;;;;;;;;18.26;100.00;97429.41;18561630;32;19948;-47
2023/06/30 05:24:21;;;;;;;;;;;;;;;18.31;100.00;97430.34;18561089;32;19969;-49
2023/06/30 05:34:24;;;;;;;;;;;;;;;18.38;100.00;97434.22;18560255;32;19995;-49
2023/06/30 05:44:27;;;;;;;;;;;;;;;18.38;100.00;97442.44;18560443;32;20249;-48
2023/06/30 05:54:30;;;;;;;;;;;;;;;18.35;100.00;97461.41;18545734;32;19960;-46
2023/06/30 06:04:32;;;;;;;;;;;;;;;18.31;100.00;97465.94;18546279;32;19949;-47
2023/06/30 06:14:35;;;;;;;;;;;;;;;18.39;100.00;97482.38;18545037;32;20359;-47
2023/06/30 06:24:38;;;;;;;;;;;;;;;18.56;100.00;97494.41;18567306;32;19972;-49
2023/06/30 06:34:41;;;;;;;;;;;;;;;18.65;100.00;97491.63;18570291;32;19968;-47
2023/06/30 06:44:44;;;;;;;;;;;;;;;18.74;100.00;97484.19;18570146;32;19987;-47
2023/06/30 06:54:47;;;;;;;;;;;;;;;18.95;100.00;97482.34;18555163;32;19975;-47
2023/06/30 07:04:49;;;;;;;;;;;;;;;19.32;100.00;97475.53;18554702;32;19948;-47
2023/06/30 07:14:52;;;;;;;;;;;;;;;19.58;100.00;97465.19;18568099;32;20321;-48
2023/06/30 07:24:54;;;;;;;;;;;;;;;19.71;100.00;97468.81;18567704;32;19960;-46
2023/06/30 07:34:57;;;;;;;;;;;;;;;19.66;100.00;97470.94;18551558;32;19953;-48
2023/06/30 07:45:00;;;;;;;;;;;;;;;19.61;100.00;97463.69;18566114;31;19952;-47
2023/06/30 07:55:04;;;;;;;;;;;;;;;19.81;100.00;97473.09;18566076;32;19983;-47
2023/06/30 08:05:07;;;;;;;;;;;;;;;20.09;100.00;97472.53;18549583;32;19945;-51
2023/06/30 08:15:10;;;;;;;;;;;;;;;20.26;100.00;97477.84;18563841;32;20329;-48
2023/06/30 08:25:16;;;;;;;;;;;;;;;20.16;100.00;97486.53;18550283;32;19989;-47
2023/06/30 08:35:22;;;;;;;;;;;;;;;19.88;100.00;97500.78;18562998;32;20508;-48
2023/06/30 08:45:28;;;;;;;;;;;;;;;19.62;100.00;97498.22;18562417;32;20377;-48
2023/06/30 08:55:32;;;;;;;;;;;;;;;19.76;100.00;97493.28;18562181;32;19960;-48
2023/06/30 09:05:37;;;;;;;;;;;;;;;19.88;100.00;97502.75;18547627;32;19993;-49
2023/06/30 09:15:43;;;;;;;;;;;;;;;20.14;100.00;97491.53;18561772;32;19953;-50
2023/06/30 09:25:47;;;;;;;;;;;;;;;20.54;100.00;97498.41;18561349;32;20025;-48
2023/06/30 09:35:51;;;;;;;;;;;;;;;20.60;100.00;97505.31;18560679;32;20246;-48
2023/06/30 09:46:01;;;;;;;;;;;;;;;20.52;100.00;97511.69;18546612;32;19975;-51
2023/06/30 09:56:05;;;;;;;;;;;;;;;20.56;100.00;97507.91;18563809;32;19988;-49
2023/06/30 10:06:08;;;;;;;;;;;;;;;20.73;100.00;97473.19;18572361;32;19987;-49
2023/06/30 10:16:14;;;;;;;;;;;;;;;20.98;100.00;97485.78;18571977;32;19963;-49
2023/06/30 10:26:19;;;;;;;;;;;;;;;21.40;100.00;97483.94;18571141;31;20313;-51
2023/06/30 10:36:24;;;;;;;;;;;;;;;21.90;100.00;97495.66;18571208;32;20290;-48
2023/06/30 10:46:45;;;;;;;;;;;;;;;22.27;100.00;97504.56;18569850;32;19949;-47
2023/06/30 10:56:49;;;;;;;;;;;;;;;22.04;100.00;97496.06;18569514;32;19971;-47
2023/06/30 11:07:02;;;;;;;;;;;;;;;21.71;100.00;97504.53;18568517;32;20009;-48
2023/06/30 11:17:06;;;;;;;;;;;;;;;21.32;100.00;97497.47;18568174;31;19999;-50
2023/06/30 11:27:09;;;;;;;;;;;;;;;21.11;100.00;97510.53;18567375;31;20013;-48
2023/06/30 11:37:12;;;;;;;;;;;;;;;21.21;100.00;97496.31;18567212;32;19975;-47
2023/06/30 11:47:16;;;;;;;;;;;;;;;21.59;100.00;97497.12;18566767;32;19969;-49
2023/06/30 11:57:19;;;;;;;;;;;;;;;20.81;100.00;97502.50;18565874;32;19971;-49
2023/06/30 12:07:23;;;;;;;;;;;;;;;20.18;100.00;97506.19;18551158;32;20298;-47
2023/06/30 12:17:28;;;;;;;;;;;;;;;20.03;100.00;97509.56;18549814;32;19961;-49
2023/06/30 12:27:33;;;;;;;;;;;;;;;20.21;100.00;97501.97;18563742;31;19964;-48
2023/06/30 12:37:36;;;;;;;;;;;;;;;20.38;100.00;97512.78;18563748;32;20008;-47
2023/06/30 12:47:39;;;;;;;;;;;;;;;20.40;100.00;97520.69;18562556;32;19960;-48
2023/06/30 12:57:42;;;;;;;;;;;;;;;20.63;100.00;97513.66;18548330;32;19952;-50
2023/06/30 13:07:46;;;;;;;;;;;;;;;21.29;100.00;97511.88;18547288;31;20269;-52
2023/06/30 13:17:51;;;;;;;;;;;;;;;21.78;100.00;97500.03;18561674;32;19953;-49
2023/06/30 13:27:54;;;;;;;;;;;;;;;22.27;100.00;97493.56;18561340;32;19959;-48
2023/06/30 13:37:57;;;;;;;;;;;;;;;23.08;100.00;97491.69;18560282;32;19948;-48
2023/06/30 13:48:01;;;;;;;;;;;;;;;23.26;100.00;97487.44;18573548;32;19976;-50
2023/06/30 13:58:04;;;;;;;;;;;;;;;23.64;100.00;97474.06;18573025;32;19999;-49
2023/06/30 14:08:07;;;;;;;;;;;;;;;24.06;100.00;97467.88;18572118;32;19957;-52
2023/06/30 14:18:10;;;;;;;;;;;;;;;24.61;100.00;97467.75;18571729;32;20012;-52
2023/06/30 14:28:13;;;;;;;;;;;;;;;24.51;100.00;97471.06;18570941;31;19964;-49
2023/06/30 14:38:17;;;;;;;;;;;;;;;24.64;100.00;97468.94;18570712;32;19996;-48
2023/06/30 14:48:23;;;;;;;;;;;;;;;24.68;100.00;97459.56;18569635;32;19976;-49
2023/06/30 14:58:27;;;;;;;;;;;;;;;24.78;100.00;97474.75;18555283;31;19952;-48
2023/06/30 15:08:31;;;;;;;;;;;;;;;24.44;100.00;97476.47;18568829;32;20345;-50
2023/06/30 15:18:34;;;;;;;;;;;;;;;23.59;100.00;97472.41;18553785;32;20325;-49
2023/06/30 15:28:39;;;;;;;;;;;;;;;22.56;100.00;97468.78;18567084;31;19985;-50
2023/06/30 15:38:43;;;;;;;;;;;;;;;22.32;100.00;97471.28;18567392;32;19957;-47
2023/06/30 15:48:48;;;;;;;;;;;;;;;21.52;100.00;97469.38;18566574;32;19957;-47
2023/06/30 15:58:50;;;;;;;;;;;;;;;21.09;100.00;97466.06;18564813;32;19945;-49
2023/06/30 16:08:54;;;;;;;;;;;;;;;20.60;100.00;97453.91;18551026;32;20007;-48
2023/06/30 16:18:57;;;;;;;;;;;;;;;20.18;100.00;97459.53;18564569;32;19944;-48
2023/06/30 16:29:00;;;;;;;;;;;;;;;19.84;100.00;97463.41;18549528;32;19987;-48
2023/06/30 16:39:04;;;;;;;;;;;;;;;19.43;100.00;97460.28;18549046;32;19953;-47
2023/06/30 16:49:08;;;;;;;;;;;;;;;19.15;100.00;97462.75;18548209;32;19975;-47
2023/06/30 16:59:11;;;;;;;;;;;;;;;18.91;100.00;97464.16;18561948;32;19983;-49
2023/06/30 17:09:14;;;;;;;;;;;;;;;18.66;100.00;97468.59;18547492;32;20276;-48
2023/06/30 17:19:18;;;;;;;;;;;;;;;18.49;100.00;97473.00;18547082;32;20020;-47
2023/06/30 17:29:21;;;;;;;;;;;;;;;18.39;100.00;97476.88;18560635;31;19961;-47
2023/06/30 17:39:27;;;;;;;;;;;;;;;18.31;100.00;97479.63;18561030;32;19960;-47
2023/06/30 17:49:33;;;;;;;;;;;;;;;18.17;100.00;97469.69;18560208;31;19960;-47
2023/06/30 17:59:36;;;;;;;;;;;;;;;18.03;100.00;97471.78;18560116;32;20253;-47
2023/06/30 18:09:40;;;;;;;;;;;;;;;17.94;100.00;97483.56;18559661;32;19964;-47
2023/06/30 18:19:44;;;;;;;;;;;;;;;17.91;100.00;97478.72;18566099;32;19961;-47
2023/06/30 18:29:47;;;;;;;;;;;;;;;17.88;100.00;97484.00;18556798;31;19988;-48
2023/06/30 18:39:50;;;;;;;;;;;;;;;17.85;100.00;97490.12;18570578;32;20294;-48
2023/06/30 18:49:54;;;;;;;;;;;;;;;17.80;100.00;97493.81;18569717;32;19957;-47
2023/06/30 18:59:57;;;;;;;;;;;;;;;17.75;100.00;97507.66;18569546;32;19967;-47
2023/06/30 19:10:00;;;;;;;;;;;;;;;17.69;100.00;97504.28;18568855;32;19957;-47
2023/06/30 19:20:04;;;;;;;;;;;;;;;17.61;100.00;97513.28;18568334;32;20029;-47
2023/06/30 19:30:07;;;;;;;;;;;;;;;17.54;100.00;97515.66;18567236;31;19961;-47
2023/06/30 19:40:10;;;;;;;;;;;;;;;17.44;100.00;97519.50;18552904;31;20325;-47
2023/06/30 19:50:14;;;;;;;;;;;;;;;17.37;100.00;97525.44;18566270;32;19980;-47
2023/06/30 20:00:16;;;;;;;;;;;;;;;17.28;100.00;97535.56;18566268;32;19956;-49
2023/06/30 20:10:19;;;;;;;;;;;;;;;17.17;100.00;97548.72;18564960;32;19949;-48
2023/06/30 20:20:22;;;;;;;;;;;;;;;17.09;100.00;97549.50;18564493;32;19945;-48
2023/06/30 20:30:30;;;;;;;;;;;;;;;17.03;100.00;97548.00;18563713;31;19989;-49
2023/06/30 20:40:33;;;;;;;;;;;;;;;16.92;100.00;97553.75;18562809;32;19940;-47
2023/06/30 20:50:36;;;;;;;;;;;;;;;16.90;100.00;97556.00;18548755;32;20042;-47
2023/06/30 21:00:38;;;;;;;;;;;;;;;16.82;100.00;97553.19;18562696;32;19996;-48
2023/06/30 21:10:40;;;;;;;;;;;;;;;16.76;100.00;97558.00;18561969;32;20013;-47
2023/06/30 21:20:43;;;;;;;;;;;;;;;16.73;100.00;97555.88;18561782;32;19952;-46
2023/06/30 21:30:45;;;;;;;;;;;;;;;16.73;100.00;97548.50;18560545;32;20016;-47
2023/06/30 21:40:48;;;;;;;;;;;;;;;16.70;100.00;97556.50;18560656;32;20008;-47
2023/06/30 21:50:51;;;;;;;;;;;;;;;16.69;100.00;97550.25;18562515;32;19964;-48
2023/06/30 22:00:53;;;;;;;;;;;;;;;16.67;100.00;97548.94;18573221;32;19967;-48
2023/06/30 22:10:57;;;;;;;;;;;;;;;16.61;100.00;97548.28;18572569;32;19988;-50
2023/06/30 22:21:00;;;;;;;;;;;;;;;16.55;100.00;97544.03;18571817;31;20008;-47
2023/06/30 22:31:02;;;;;;;;;;;;;;;16.53;100.00;97538.09;18571005;32;19973;-47
2023/06/30 22:41:05;;;;;;;;;;;;;;;16.47;100.00;97542.88;18570752;32;19952;-47
2023/06/30 22:51:07;;;;;;;;;;;;;;;16.41;100.00;97538.66;18555854;32;19956;-46
2023/06/30 23:01:10;;;;;;;;;;;;;;;16.35;100.00;97531.72;18569372;32;19957;-48
2023/06/30 23:11:13;;;;;;;;;;;;;;;16.31;100.00;97526.09;18554791;32;19952;-47
2023/06/30 23:21:17;;;;;;;;;;;;;;;16.22;100.00;97520.56;18568155;32;19953;-47
2023/06/30 23:31:21;;;;;;;;;;;;;;;16.17;100.00;97517.16;18567447;32;19961;-47
2023/06/30 23:41:24;;;;;;;;;;;;;;;16.13;100.00;97516.97;18567212;32;19941;-47
2023/06/30 23:51:27;;;;;;;;;;;;;;;16.14;100.00;97517.78;18539197;32;19996;-49
